Pagina principale
METAR-TAF:

METAR-TAF

Aeroporti :

Ermelo, Sudafrica

latitudine: 26-29-44S, longitudine: 29-58-47E, altezza: 1737 m

Osservazione

Il bollettino è stato emesso 8 ore e 46 minuti fa, alle 16:27 UTC
Vento 14 kt da est/sud-est
Temperature 12°C
Umidità 100%
Pressione 1025 hPa

METAR: FAEO 231627Z AUTO 12014KT //// // ////// 12/12 Q1025

Ora: 03:13 (01:13 UTC)


TAF: mancante

Osservazioni e previsioni meteorologiche di più di 4000 aeroporti (messaggi METAR e TAF).

Le stazioni disponibili sono rappresentate dai dischi gialli e rossi sulla carta.

Puntare il mouse per vedere il nome della stazione.

Clicca sopra per visualizzare le osservazioni e previsioni meteorologiche.

Per cambiare la mappa : fare clic sui pulsanti verdi con una croce nera per ingrandire, il pulsante verde con un trattino per diminuire, o sulla freccia verde per le mappe adiacenti.


METAR-TAF: